Time;durP1;ratioP1;P1;durP2;ratioP2;P2;SDS_P1;SDS_P2;PMS_P1;PMS_P2;Temp;Humidity;BMP_temperature;BMP_pressure;BME280_temperature;BME280_humidity;BME280_pressure;Samples;Min_cycle;Max_cycle;Signal;HPM_P1;HPM_P2
2023/10/19 00:03:49;;;;;;;;;;;;;;;10.87;70.95;97667.13;10328833;28;20527;-48
2023/10/19 00:08:52;;;;;;;11.52;9.45;;;;;;;10.83;70.07;97657.56;10328405;28;19967;-51
2023/10/19 00:13:54;;;;;;;10.18;8.65;;;;;;;10.50;70.68;97604.91;10328663;28;20060;-50
2023/10/19 00:18:53;;;;;;;16.55;8.98;;;;;;;10.90;70.37;97654.13;10328444;28;20132;-50
2023/10/19 00:23:57;;;;;;;11.75;8.98;;;;;;;10.98;69.79;97654.94;10328090;28;20057;-50
2023/10/19 00:28:57;;;;;;;10.18;8.63;;;;;;;10.99;69.63;97645.44;10326221;28;20073;-51
2023/10/19 00:33:56;;;;;;;11.35;9.02;;;;;;;11.03;69.71;97632.44;10328217;28;20073;-49
2023/10/19 00:38:56;;;;;;;9.90;8.38;;;;;;;11.02;69.41;97624.63;10328329;28;20107;-51
2023/10/19 00:44:10;;;;;;;9.95;8.35;;;;;;;11.14;69.15;97623.72;10327179;28;20076;-51
2023/10/19 00:49:14;;;;;;;10.60;8.48;;;;;;;11.03;68.28;97619.44;10327679;28;20077;-51
2023/10/19 00:54:40;;;;;;;10.50;8.65;;;;;;;11.09;68.70;97613.34;10327080;28;20065;-51
2023/10/19 00:59:54;;;;;;;9.45;7.60;;;;;;;11.15;67.97;97612.44;10327205;28;20077;-50
2023/10/19 01:05:32;;;;;;;9.95;7.75;;;;;;;11.22;67.25;97609.81;10326239;28;20503;-49
2023/10/19 01:10:20;;;;;;;9.60;7.80;;;;;;;11.22;66.54;97608.94;10326283;28;20501;-50
2023/10/19 01:15:29;;;;;;;10.18;7.90;;;;;;;11.16;66.58;97609.84;10325651;28;20072;-48
2023/10/19 01:25:36;;;;;;;11.25;8.35;;;;;;;10.17;66.43;97614.50;10328805;28;20081;-52
2023/10/19 01:30:36;;;;;;;12.13;8.95;;;;;;;9.65;68.70;97618.84;10329289;28;20060;-51
2023/10/19 01:40:54;;;;;;;15.43;10.32;;;;;;;9.05;71.79;97617.00;10329407;28;20057;-49
2023/10/19 01:45:56;;;;;;;13.55;9.50;;;;;;;8.87;73.52;97619.53;10327900;28;20073;-50
2023/10/19 01:50:55;;;;;;;13.02;9.77;;;;;;;8.87;73.94;97628.16;10327095;28;20065;-48
2023/10/19 01:55:57;;;;;;;13.07;10.40;;;;;;;9.04;75.45;97619.56;10328324;28;20064;-48
2023/10/19 02:01:00;;;;;;;12.98;10.68;;;;;;;9.35;76.37;97617.97;10328031;28;20061;-47
2023/10/19 02:05:59;;;;;;;17.45;11.15;;;;;;;9.65;76.34;97617.16;10327705;28;20502;-49
2023/10/19 02:11:02;;;;;;;14.70;11.40;;;;;;;9.93;74.97;97607.63;10328736;28;20114;-50
2023/10/19 02:16:01;;;;;;;16.67;11.35;;;;;;;10.11;73.67;97590.31;10328393;28;20502;-51
2023/10/19 02:21:04;;;;;;;14.77;11.18;;;;;;;10.23;73.14;97590.28;10324195;28;20064;-48
2023/10/19 02:26:04;;;;;;;13.57;10.68;;;;;;;10.29;72.65;97586.81;10323741;28;20095;-49
2023/10/19 02:31:23;;;;;;;13.32;8.90;;;;;;;10.45;72.22;97598.00;10324565;28;20076;-50
2023/10/19 02:36:22;;;;;;;13.50;9.45;;;;;;;10.58;70.95;97597.09;10323842;28;20080;-48
2023/10/19 02:41:21;;;;;;;15.48;10.55;;;;;;;10.68;70.63;97600.53;10324506;28;20144;-47
2023/10/19 02:46:20;;;;;;;12.80;10.40;;;;;;;10.70;70.27;97601.38;10323540;28;20355;-51
2023/10/19 02:51:19;;;;;;;14.60;10.43;;;;;;;10.67;70.19;97591.88;10324298;28;20057;-48
2023/10/19 02:56:19;;;;;;;12.65;9.98;;;;;;;10.68;69.98;97597.94;10323365;28;20408;-47
2023/10/19 03:01:24;;;;;;;13.57;10.07;;;;;;;10.72;69.44;97597.06;10323766;28;20865;-50
2023/10/19 03:06:25;;;;;;;14.43;11.02;;;;;;;10.74;69.30;97590.13;10323785;28;20136;-49
2023/10/19 03:11:25;;;;;;;14.77;11.60;;;;;;;10.72;68.84;97584.06;10323144;28;20610;-48
2023/10/19 03:16:24;;;;;;;12.15;9.60;;;;;;;10.67;68.99;97576.31;10322887;28;20068;-51
2023/10/19 03:21:26;;;;;;;13.13;10.18;;;;;;;10.71;69.35;97579.75;10323923;28;20116;-50
2023/10/19 03:26:31;;;;;;;11.63;9.90;;;;;;;10.75;68.50;97565.88;10322306;28;20187;-50
2023/10/19 03:31:32;;;;;;;13.02;9.00;;;;;;;10.74;68.96;97580.59;10322930;28;20056;-49
2023/10/19 03:36:32;;;;;;;10.95;9.18;;;;;;;10.73;68.92;97589.28;10322286;28;20077;-49
2023/10/19 03:41:35;;;;;;;14.48;10.38;;;;;;;10.68;69.18;97572.81;10326344;28;20533;-50
2023/10/19 03:46:37;;;;;;;15.07;10.05;;;;;;;10.73;68.23;97562.44;10329853;28;20065;-49
2023/10/19 03:51:40;;;;;;;11.35;9.50;;;;;;;10.72;68.22;97565.91;10330025;28;20080;-50
2023/10/19 03:56:39;;;;;;;14.30;10.00;;;;;;;10.67;68.84;97567.66;10329646;28;20072;-48
2023/10/19 04:01:40;;;;;;;12.55;10.25;;;;;;;10.61;68.65;97566.81;10329493;28;20076;-48
2023/10/19 04:06:49;;;;;;;12.57;9.57;;;;;;;10.61;69.25;97565.94;10328803;28;20148;-50
2023/10/19 04:11:48;;;;;;;13.50;9.95;;;;;;;10.62;68.87;97550.38;10329325;28;20057;-51
2023/10/19 04:16:48;;;;;;;12.80;10.25;;;;;;;10.61;68.90;97548.66;10329106;28;20103;-48
2023/10/19 04:21:47;;;;;;;13.70;9.82;;;;;;;10.65;69.32;97544.31;10332667;28;20500;-50
2023/10/19 04:26:48;;;;;;;12.98;10.02;;;;;;;10.65;68.70;97540.84;10331147;28;20084;-51
2023/10/19 04:31:49;;;;;;;17.20;10.75;;;;;;;10.74;68.44;97528.69;10332003;28;20547;-49
2023/10/19 04:36:48;;;;;;;13.43;10.23;;;;;;;10.68;69.09;97517.47;10331206;28;20492;-49
2023/10/19 04:41:50;;;;;;;13.20;11.07;;;;;;;10.70;68.65;97515.75;10330704;28;20421;-51
2023/10/19 04:46:49;;;;;;;16.83;11.63;;;;;;;10.72;69.61;97514.00;10330638;28;20069;-49
2023/10/19 04:51:48;;;;;;;14.73;10.73;;;;;;;10.75;68.70;97513.97;10328763;28;20117;-51
2023/10/19 04:56:48;;;;;;;15.23;9.82;;;;;;;10.72;69.29;97506.22;10329916;28;20136;-48
2023/10/19 05:01:47;;;;;;;13.65;11.32;;;;;;;10.74;69.01;97504.47;10329955;28;20512;-51
2023/10/19 05:06:46;;;;;;;14.52;11.25;;;;;;;10.75;69.11;97520.06;10329133;28;20068;-50
2023/10/19 05:11:45;;;;;;;14.10;10.38;;;;;;;10.77;68.41;97512.25;10329704;28;20124;-50
2023/10/19 05:16:44;;;;;;;11.88;9.93;;;;;;;10.84;68.02;97526.91;10328372;28;20679;-51
2023/10/19 05:21:44;;;;;;;14.82;10.80;;;;;;;10.92;68.63;97517.38;10322701;28;20120;-49
2023/10/19 05:26:43;;;;;;;18.38;10.48;;;;;;;10.97;67.83;97520.81;10324392;28;20476;-51
2023/10/19 05:31:42;;;;;;;13.57;9.75;;;;;;;11.09;67.52;97532.00;10328256;28;20556;-51
2023/10/19 05:36:45;;;;;;;12.02;9.48;;;;;;;11.18;66.90;97526.75;10327263;28;20456;-52
2023/10/19 05:41:44;;;;;;;13.75;10.25;;;;;;;11.30;66.17;97526.63;10325646;28;20148;-51
2023/10/19 05:46:43;;;;;;;12.60;9.35;;;;;;;11.48;65.85;97529.94;10324845;28;20041;-50
2023/10/19 05:51:44;;;;;;;11.63;8.98;;;;;;;11.59;64.79;97521.19;10322730;28;20046;-48
2023/10/19 05:56:43;;;;;;;11.52;8.98;;;;;;;11.72;64.64;97531.50;10327118;28;20060;-51
2023/10/19 06:01:42;;;;;;;;;;;;;;;11.84;64.02;97529.63;10327059;28;20074;-49
2023/10/19 06:06:41;;;;;;;15.02;8.68;;;;;;;11.65;63.69;97504.69;10326011;28;19913;-49
2023/10/19 06:11:42;;;;;;;10.35;8.23;;;;;;;11.92;62.53;97529.53;10328903;28;20029;-51
2023/10/19 06:16:41;;;;;;;13.05;8.82;;;;;;;11.98;62.83;97528.63;10367333;28;20068;-49
2023/10/19 06:21:40;;;;;;;13.38;7.82;;;;;;;12.10;62.47;97520.69;10336417;28;20056;-48
2023/10/19 06:26:39;;;;;;;12.10;8.63;;;;;;;12.25;61.24;97510.13;10324389;28;20149;-49
2023/10/19 06:31:38;;;;;;;11.82;8.23;;;;;;;12.50;60.66;97518.53;10307885;28;20133;-49
2023/10/19 06:36:37;;;;;;;13.45;8.75;;;;;;;12.85;59.65;97511.13;10290052;28;20076;-49
2023/10/19 06:41:36;;;;;;;10.32;7.25;;;;;;;13.03;59.10;97505.66;10313904;28;20080;-51
2023/10/19 06:46:35;;;;;;;9.60;7.00;;;;;;;13.28;57.83;97502.66;10289122;28;20129;-51
2023/10/19 06:51:36;;;;;;;14.30;8.23;;;;;;;13.44;56.94;97491.09;10310434;28;20076;-49
2023/10/19 06:56:37;;;;;;;12.95;7.25;;;;;;;13.58;56.39;97483.09;10296876;28;20069;-49
2023/10/19 07:01:36;;;;;;;8.88;6.72;;;;;;;13.81;55.96;97503.56;10299692;28;20084;-50
2023/10/19 07:06:35;;;;;;;;;;;;;;;14.04;55.33;97515.31;10322577;28;20040;-51
2023/10/19 07:11:34;;;;;;;8.50;6.47;;;;;;;14.30;54.47;97523.50;10323492;28;20311;-50
2023/10/19 07:16:32;;;;;;;9.52;6.35;;;;;;;14.34;53.18;97467.75;10330573;28;20123;-50
2023/10/19 07:21:35;;;;;;;9.75;6.05;;;;;;;14.79;52.44;97517.31;10339185;28;20037;-49
2023/10/19 07:26:41;;;;;;;11.95;6.65;;;;;;;14.94;52.10;97508.25;10332323;28;20073;-51
2023/10/19 07:31:40;;;;;;;19.40;6.80;;;;;;;15.23;51.94;97499.75;10337919;28;20072;-52
2023/10/19 07:36:39;;;;;;;;;;;;;;;15.80;50.89;97487.06;10337007;28;20041;-49
2023/10/19 07:41:38;;;;;;;9.17;6.17;;;;;;;16.21;50.33;97488.56;10338195;28;19956;-51
2023/10/19 07:46:36;;;;;;;;;;;;;;;16.39;49.47;97487.16;10332094;28;20575;-51
2023/10/19 07:51:35;;;;;;;16.40;5.88;;;;;;;16.57;48.76;97496.25;10337624;28;19912;-51
2023/10/19 07:56:34;;;;;;;;;;;;;;;16.77;48.23;97489.56;10338520;28;20064;-49
2023/10/19 08:01:33;;;;;;;8.93;5.68;;;;;;;16.73;47.76;97465.22;10316963;28;19974;-50
2023/10/19 08:06:32;;;;;;;;;;;;;;;16.83;47.90;97469.31;10336951;28;20060;-48
2023/10/19 08:11:31;;;;;;;8.47;5.63;;;;;;;17.05;47.20;97480.00;10302176;28;19917;-52
2023/10/19 08:16:30;;;;;;;13.93;5.70;;;;;;;17.33;47.11;97481.72;10327789;28;20064;-51
2023/10/19 08:21:29;;;;;;;7.60;5.38;;;;;;;17.45;46.39;97488.31;10335489;28;20069;-48
2023/10/19 08:26:29;;;;;;;7.38;5.13;;;;;;;17.51;45.85;97470.63;10321750;28;20168;-52
2023/10/19 08:31:28;;;;;;;9.68;5.45;;;;;;;17.63;45.67;97474.59;10313826;28;20065;-52
2023/10/19 08:36:28;;;;;;;8.98;5.60;;;;;;;17.85;45.80;97487.06;10318102;28;20049;-52
2023/10/19 08:41:26;;;;;;;13.15;5.55;;;;;;;17.91;44.99;97494.69;10336505;28;20068;-51
2023/10/19 08:46:25;;;;;;;7.15;5.60;;;;;;;18.06;44.69;97496.81;10327408;28;20128;-50
2023/10/19 08:51:25;;;;;;;7.78;4.93;;;;;;;18.13;44.29;97500.06;10297399;28;20103;-51
2023/10/19 08:56:24;;;;;;;7.40;5.63;;;;;;;18.38;44.76;97497.41;10315137;28;20084;-50
2023/10/19 09:01:23;;;;;;;8.90;6.47;;;;;;;18.66;44.17;97494.59;10332961;28;20080;-51
2023/10/19 09:06:22;;;;;;;8.90;5.40;;;;;;;18.92;43.82;97484.91;10331792;28;20480;-52
2023/10/19 09:11:21;;;;;;;6.95;5.00;;;;;;;19.30;43.34;97496.56;10311662;28;20420;-52
2023/10/19 09:16:21;;;;;;;8.73;5.38;;;;;;;19.37;42.49;97487.50;10325345;28;20107;-50
2023/10/19 09:21:24;;;;;;;8.82;4.57;;;;;;;19.37;42.18;97491.88;10332016;28;20057;-50
2023/10/19 09:26:24;;;;;;;7.43;4.72;;;;;;;19.39;42.06;97501.44;10331979;28;20516;-51
2023/10/19 09:31:24;;;;;;;12.32;5.40;;;;;;;19.49;41.65;97485.28;10337870;28;20040;-50
2023/10/19 09:36:27;;;;;;;9.07;5.00;;;;;;;19.60;41.62;97483.06;10337380;28;20279;-50
2023/10/19 09:41:29;;;;;;;11.32;5.05;;;;;;;19.82;41.16;97473.34;10329844;28;20095;-52
2023/10/19 09:46:31;;;;;;;7.78;5.15;;;;;;;19.93;40.94;97477.28;10337493;28;20107;-50
2023/10/19 09:51:32;;;;;;;6.97;4.95;;;;;;;20.32;40.44;97452.75;10337250;28;20455;-51
2023/10/19 09:56:41;;;;;;;6.68;5.45;;;;;;;20.41;40.25;97452.38;10327365;28;20061;-53
2023/10/19 10:02:12;;;;;;;6.80;5.25;;;;;;;20.45;40.08;97449.53;10303275;28;20080;-49
2023/10/19 10:07:11;;;;;;;6.18;5.32;;;;;;;20.31;40.10;97437.88;10320557;28;20064;-50
2023/10/19 10:12:23;;;;;;;7.40;5.25;;;;;;;20.34;40.48;97411.38;10377184;28;20518;-48
2023/10/19 10:17:25;;;;;;;7.97;5.75;;;;;;;20.26;40.30;97375.72;10331495;28;20064;-52
2023/10/19 10:22:24;;;;;;;7.93;5.00;;;;;;;20.42;40.13;97377.66;10311874;28;20077;-50
2023/10/19 10:27:23;;;;;;;6.90;5.10;;;;;;;19.32;40.30;97244.78;10328176;28;20111;-48
2023/10/19 10:32:44;;;;;;;6.88;5.45;;;;;;;19.99;40.92;97367.25;10306348;28;20068;-49
2023/10/19 10:37:54;;;;;;;7.57;5.30;;;;;;;19.94;40.89;97365.78;10307933;28;20544;-47
2023/10/19 10:43:05;;;;;;;6.68;5.55;;;;;;;20.03;40.96;97360.09;10293665;28;20516;-48
2023/10/19 10:48:10;;;;;;;6.07;5.15;;;;;;;20.25;40.89;97346.78;10321908;28;20077;-51
2023/10/19 10:53:14;;;;;;;6.95;4.97;;;;;;;20.54;40.68;97334.91;10323784;28;20057;-51
2023/10/19 10:58:17;;;;;;;4.88;4.35;;;;;;;21.08;40.01;97335.78;10356148;28;20523;-50
2023/10/19 11:03:16;;;;;;;9.38;5.63;;;;;;;21.30;39.17;97332.91;10339393;28;20068;-50
2023/10/19 11:08:16;;;;;;;5.65;5.05;;;;;;;21.40;38.76;97332.44;10315051;28;20057;-51
2023/10/19 11:13:17;;;;;;;8.02;5.18;;;;;;;21.43;38.70;97314.69;10362960;28;20064;-51
2023/10/19 11:18:32;;;;;;;7.47;5.50;;;;;;;21.44;38.47;97295.25;10313419;28;20063;-50
2023/10/19 11:23:58;;;;;;;7.03;4.80;;;;;;;21.46;38.32;97296.03;10302344;28;20076;-50
2023/10/19 11:28:58;;;;;;;6.90;4.53;;;;;;;21.70;37.98;97283.31;10320403;28;20066;-51
2023/10/19 11:33:58;;;;;;;8.20;4.82;;;;;;;21.96;37.27;97276.63;10327328;28;20065;-50
2023/10/19 11:38:57;;;;;;;6.57;5.00;;;;;;;22.30;36.49;97284.53;10309932;28;20070;-48
2023/10/19 11:43:57;;;;;;;5.07;4.03;;;;;;;22.16;37.11;97278.22;10301530;28;20085;-51
2023/10/19 11:48:56;;;;;;;12.32;4.68;;;;;;;22.31;36.96;97271.22;10306874;28;20061;-50
2023/10/19 11:53:55;;;;;;;5.53;4.28;;;;;;;22.55;37.15;97283.97;10340599;28;20080;-51
2023/10/19 11:58:54;;;;;;;7.22;4.60;;;;;;;22.74;36.54;97279.41;10314150;28;20817;-51
2023/10/19 12:03:53;;;;;;;4.63;4.15;;;;;;;22.87;36.34;97262.81;10334372;28;20117;-51
2023/10/19 12:08:52;;;;;;;5.72;4.50;;;;;;;22.74;36.69;97242.38;10315770;28;20528;-49
2023/10/19 12:13:51;;;;;;;5.20;3.85;;;;;;;22.82;36.34;97243.72;10296982;28;20064;-51
2023/10/19 12:18:50;;;;;;;9.23;4.35;;;;;;;22.88;36.65;97238.03;10298951;28;20022;-51
2023/10/19 12:23:51;;;;;;;5.93;3.80;;;;;;;23.13;35.97;97237.44;10326694;28;20606;-51
2023/10/19 12:28:50;;;;;;;4.53;3.95;;;;;;;23.16;36.10;97238.13;10339939;28;20080;-52
2023/10/19 12:33:49;;;;;;;4.75;4.05;;;;;;;22.93;35.57;97233.34;10337771;28;20021;-52
2023/10/19 12:38:49;;;;;;;5.22;4.30;;;;;;;22.61;36.55;97236.03;10326674;28;20034;-50
2023/10/19 12:43:51;;;;;;;8.32;4.40;;;;;;;22.55;36.82;97236.38;10298935;28;20062;-51
2023/10/19 12:48:51;;;;;;;6.35;4.05;;;;;;;22.42;36.99;97228.31;10318357;28;20076;-52
2023/10/19 12:53:51;;;;;;;4.65;4.15;;;;;;;22.56;36.53;97207.22;10335399;28;20065;-52
2023/10/19 12:58:50;;;;;;;5.47;3.80;;;;;;;22.50;36.49;97178.47;10328584;28;20065;-52
2023/10/19 13:03:50;;;;;;;4.30;3.90;;;;;;;22.76;36.41;97197.28;10310683;28;20076;-50
2023/10/19 13:08:49;;;;;;;4.95;3.88;;;;;;;22.57;36.31;97181.63;10310919;28;20064;-52
2023/10/19 13:13:48;;;;;;;5.45;3.92;;;;;;;22.68;36.68;97183.66;10314130;28;20032;-49
2023/10/19 13:18:49;;;;;;;5.15;3.75;;;;;;;22.67;36.20;97168.69;10314627;28;20061;-51
2023/10/19 13:23:48;;;;;;;7.25;4.32;;;;;;;22.65;36.42;97174.09;10358436;28;20069;-53
2023/10/19 13:28:48;;;;;;;6.93;4.50;;;;;;;22.63;36.65;97168.03;10320408;28;20086;-52
2023/10/19 13:33:47;;;;;;;6.10;4.18;;;;;;;22.52;36.71;97149.31;10309304;28;20072;-52
2023/10/19 13:38:46;;;;;;;6.28;4.07;;;;;;;22.51;37.12;97144.97;10340194;28;20080;-48
2023/10/19 13:43:47;;;;;;;5.78;4.10;;;;;;;22.40;36.96;97137.66;10328808;28;20492;-52
2023/10/19 13:48:46;;;;;;;6.63;4.68;;;;;;;22.18;37.29;97119.56;10334441;28;20110;-52
2023/10/19 13:53:45;;;;;;;6.20;4.22;;;;;;;22.13;37.51;97132.19;10333602;28;20057;-49
2023/10/19 13:58:46;;;;;;;6.10;3.85;;;;;;;22.10;37.24;97127.91;10333342;28;20030;-52
2023/10/19 14:03:45;;;;;;;5.57;3.75;;;;;;;22.07;37.66;97129.91;10331026;28;20176;-52
2023/10/19 14:08:45;;;;;;;5.20;3.92;;;;;;;21.86;37.97;97106.38;10332539;28;20037;-50
2023/10/19 14:13:44;;;;;;;6.88;4.68;;;;;;;21.82;37.86;97115.41;10330943;28;20048;-52
2023/10/19 14:18:43;;;;;;;5.90;4.63;;;;;;;21.55;38.42;97102.81;10300987;28;20081;-52
2023/10/19 14:23:44;;;;;;;6.60;4.45;;;;;;;21.20;38.98;97094.19;10294699;28;20029;-50
2023/10/19 14:28:43;;;;;;;13.45;4.85;;;;;;;21.04;39.31;97085.38;10295878;28;20077;-53
2023/10/19 14:33:42;;;;;;;8.50;4.20;;;;;;;20.75;39.77;97079.00;10305543;28;20125;-52
2023/10/19 14:38:43;;;;;;;5.50;4.45;;;;;;;20.53;40.33;97055.56;10299093;28;20029;-50
2023/10/19 14:43:42;;;;;;;6.68;4.70;;;;;;;20.33;40.90;97052.16;10319516;28;20117;-51
2023/10/19 14:48:41;;;;;;;4.55;4.05;;;;;;;20.13;41.28;97040.00;10318930;28;20112;-50
2023/10/19 14:53:40;;;;;;;6.38;4.38;;;;;;;20.04;41.81;97037.81;10324658;28;20121;-50
2023/10/19 14:58:39;;;;;;;5.68;4.40;;;;;;;19.74;42.11;97011.25;10325441;28;20113;-49
2023/10/19 15:03:38;;;;;;;5.93;4.28;;;;;;;19.81;42.32;97039.84;10323135;28;20041;-52
2023/10/19 15:08:37;;;;;;;9.98;5.03;;;;;;;19.73;42.33;97039.38;10325902;28;20025;-52
2023/10/19 15:13:36;;;;;;;15.05;5.43;;;;;;;19.59;42.63;97044.44;10319394;28;20065;-51
2023/10/19 15:18:39;;;;;;;10.00;4.60;;;;;;;19.47;42.98;97060.81;10322568;28;20120;-50
2023/10/19 15:23:38;;;;;;;18.42;5.13;;;;;;;19.33;43.05;97067.56;10321979;28;20490;-48
2023/10/19 15:28:37;;;;;;;6.43;4.47;;;;;;;19.36;43.01;97059.53;10325119;28;20073;-49
2023/10/19 15:33:36;;;;;;;8.95;4.28;;;;;;;19.24;43.10;97062.75;10322900;28;20071;-50
2023/10/19 15:38:35;;;;;;;6.03;4.50;;;;;;;19.18;43.42;97055.13;10328738;28;20060;-51
2023/10/19 15:43:34;;;;;;;8.70;4.65;;;;;;;19.04;43.24;97066.28;10329312;28;20113;-51
2023/10/19 15:48:34;;;;;;;9.23;4.35;;;;;;;18.89;43.72;97061.75;10332787;28;20655;-51
2023/10/19 15:53:34;;;;;;;9.27;4.70;;;;;;;18.79;43.70;97066.56;10332408;28;20044;-51
2023/10/19 15:58:33;;;;;;;9.55;4.82;;;;;;;18.75;44.01;97062.38;10332733;28;20049;-51
2023/10/19 16:03:32;;;;;;;9.00;4.60;;;;;;;18.68;44.05;97074.03;10328067;28;20136;-49
2023/10/19 16:08:31;;;;;;;7.47;4.43;;;;;;;18.72;43.96;97062.50;10329435;28;20166;-48
2023/10/19 16:13:30;;;;;;;6.00;4.63;;;;;;;18.71;44.12;97077.41;10327673;28;20061;-50
2023/10/19 16:18:30;;;;;;;13.25;4.90;;;;;;;18.73;44.40;97074.72;10327651;28;20124;-48
2023/10/19 16:23:29;;;;;;;10.75;4.75;;;;;;;18.76;44.24;97079.81;10328027;28;20120;-50
2023/10/19 16:28:28;;;;;;;9.93;3.95;;;;;;;18.48;44.13;97038.13;10328291;28;20081;-50
2023/10/19 16:33:27;;;;;;;7.90;4.55;;;;;;;18.73;44.36;97085.22;10327781;28;20116;-50
2023/10/19 16:38:26;;;;;;;7.30;5.35;;;;;;;18.67;44.14;97060.06;10327404;28;20112;-48
2023/10/19 16:43:25;;;;;;;5.20;4.35;;;;;;;18.58;44.65;97060.47;10327379;28;20105;-50
2023/10/19 16:48:24;;;;;;;7.90;4.80;;;;;;;18.60;44.49;97074.38;10326734;28;21037;-49
2023/10/19 16:53:23;;;;;;;9.07;4.88;;;;;;;18.40;44.92;97046.34;10327577;28;20500;-50
2023/10/19 16:58:22;;;;;;;6.88;4.78;;;;;;;18.58;44.85;97069.19;10327832;28;20037;-50
2023/10/19 17:03:21;;;;;;;9.85;4.93;;;;;;;18.55;45.13;97050.06;10325729;28;20025;-48
2023/10/19 17:08:20;;;;;;;7.22;4.75;;;;;;;18.49;45.10;97051.19;10326444;28;20516;-49
2023/10/19 17:13:19;;;;;;;7.30;4.15;;;;;;;18.54;45.20;97049.22;10325833;28;20051;-50
2023/10/19 17:18:18;;;;;;;6.88;4.30;;;;;;;18.57;45.26;97046.47;10327987;28;20121;-50
2023/10/19 17:23:19;;;;;;;7.15;4.60;;;;;;;18.55;45.25;97035.19;10328973;28;20028;-51
2023/10/19 17:28:18;;;;;;;6.95;4.60;;;;;;;18.51;45.40;97004.69;10328714;28;20733;-51
2023/10/19 17:33:17;;;;;;;7.20;4.20;;;;;;;18.70;45.21;97023.16;10328601;28;20049;-49
2023/10/19 17:38:16;;;;;;;8.65;4.13;;;;;;;18.77;45.26;97018.47;10329026;28;20484;-48
2023/10/19 17:43:15;;;;;;;9.23;4.63;;;;;;;18.81;45.13;97030.56;10328140;28;20475;-50
2023/10/19 17:48:14;;;;;;;9.07;4.50;;;;;;;18.93;44.84;97022.09;10328585;28;20408;-49
2023/10/19 17:53:13;;;;;;;11.25;4.25;;;;;;;19.03;44.83;97031.25;10328220;28;20021;-50
2023/10/19 17:58:12;;;;;;;6.28;3.80;;;;;;;18.96;44.85;97042.97;10327372;28;20060;-49
2023/10/19 18:03:11;;;;;;;8.27;4.30;;;;;;;18.99;44.79;97057.75;10327564;28;20065;-52
2023/10/19 18:08:10;;;;;;;9.88;4.53;;;;;;;18.99;44.60;97071.78;10327828;28;20065;-51
2023/10/19 18:13:11;;;;;;;7.60;4.13;;;;;;;18.96;44.67;97071.91;10327976;28;20076;-49
2023/10/19 18:18:10;;;;;;;7.13;4.43;;;;;;;18.75;44.65;97038.72;10324548;28;20069;-50
2023/10/19 18:23:10;;;;;;;8.80;4.30;;;;;;;18.88;44.48;97031.97;10324025;28;20133;-51
2023/10/19 18:28:10;;;;;;;13.23;4.47;;;;;;;19.06;44.28;97050.44;10322010;28;20064;-49
2023/10/19 18:33:11;;;;;;;6.47;4.30;;;;;;;19.13;44.34;97051.88;10324210;28;20160;-49
2023/10/19 18:38:10;;;;;;;4.93;3.72;;;;;;;19.21;44.11;97042.69;10323216;28;20094;-51
2023/10/19 18:43:09;;;;;;;5.05;3.50;;;;;;;19.22;44.02;97048.81;10322924;28;20121;-50
2023/10/19 18:48:08;;;;;;;6.03;4.00;;;;;;;19.27;43.68;97032.81;10323705;28;20092;-51
2023/10/19 18:53:07;;;;;;;5.78;3.90;;;;;;;19.52;43.23;97049.13;10323173;28;20030;-51
2023/10/19 18:58:06;;;;;;;7.00;3.70;;;;;;;19.63;43.17;97040.75;10323606;28;20124;-52
2023/10/19 19:03:06;;;;;;;6.15;3.22;;;;;;;19.58;43.40;97048.00;10322991;28;20042;-51
2023/10/19 19:08:05;;;;;;;5.45;3.50;;;;;;;19.57;43.43;97064.72;10322917;28;20073;-51
2023/10/19 19:13:05;;;;;;;7.55;3.70;;;;;;;19.59;43.31;97065.50;10329961;28;20068;-52
2023/10/19 19:18:04;;;;;;;6.35;3.70;;;;;;;19.59;43.34;97070.78;10331322;28;20065;-50
2023/10/19 19:23:03;;;;;;;8.63;4.10;;;;;;;19.53;43.28;97065.75;10329178;28;20080;-51
2023/10/19 19:28:02;;;;;;;6.90;4.07;;;;;;;19.54;43.02;97064.84;10329950;28;20576;-52
2023/10/19 19:33:01;;;;;;;6.93;4.00;;;;;;;19.42;43.28;97061.88;10330138;28;20519;-52
2023/10/19 19:38:01;;;;;;;14.77;5.20;;;;;;;19.35;43.33;97057.00;10330040;28;20112;-50
2023/10/19 19:43:00;;;;;;;9.90;4.32;;;;;;;19.23;43.50;97054.00;10329176;28;20132;-49
2023/10/19 19:47:59;;;;;;;8.43;3.92;;;;;;;19.17;43.48;97058.69;10329794;28;20047;-52
2023/10/19 19:52:58;;;;;;;9.77;4.28;;;;;;;19.20;43.60;97042.75;10329435;28;20116;-52
2023/10/19 19:57:57;;;;;;;13.23;4.65;;;;;;;19.15;43.77;97034.25;10329054;28;20033;-49
2023/10/19 20:02:56;;;;;;;6.20;3.72;;;;;;;19.19;43.87;97028.75;10329375;28;20029;-50
2023/10/19 20:07:56;;;;;;;10.55;3.88;;;;;;;19.15;43.74;97013.19;10329584;28;20114;-49
2023/10/19 20:12:56;;;;;;;12.45;4.32;;;;;;;19.06;44.08;97019.72;10328329;28;20069;-51
2023/10/19 20:17:55;;;;;;;7.88;3.58;;;;;;;19.09;44.28;97016.09;10330177;28;20060;-50
2023/10/19 20:22:57;;;;;;;11.13;4.07;;;;;;;19.12;44.18;97031.75;10330804;28;20512;-51
2023/10/19 20:28:04;;;;;;;9.68;4.10;;;;;;;19.09;44.03;97045.91;10330989;28;20087;-50
2023/10/19 20:33:04;;;;;;;5.35;3.95;;;;;;;19.16;43.90;97034.19;10331825;28;20065;-51
2023/10/19 20:38:05;;;;;;;6.60;3.60;;;;;;;19.11;44.17;97046.69;10330786;28;20171;-50
2023/10/19 20:43:05;;;;;;;8.15;4.03;;;;;;;19.00;44.30;97026.16;10331103;28;20077;-52
2023/10/19 20:48:06;;;;;;;16.45;4.18;;;;;;;18.98;44.26;97014.84;10331320;28;20069;-50
2023/10/19 20:53:05;;;;;;;6.93;3.58;;;;;;;18.88;44.57;97010.94;10331150;28;20072;-50
2023/10/19 20:58:05;;;;;;;6.68;3.40;;;;;;;18.87;44.57;97000.50;10330833;28;20512;-48
2023/10/19 21:03:04;;;;;;;6.50;3.67;;;;;;;18.70;44.92;96975.00;10330926;28;20103;-49
2023/10/19 21:08:03;;;;;;;6.95;3.85;;;;;;;18.82;45.04;97008.59;10329969;28;20060;-51
2023/10/19 21:13:03;;;;;;;5.60;4.15;;;;;;;18.74;45.03;97005.47;10329720;28;20512;-50
2023/10/19 21:18:02;;;;;;;6.88;3.58;;;;;;;18.84;44.85;96998.84;10327097;28;20071;-51
2023/10/19 21:23:01;;;;;;;5.47;3.80;;;;;;;18.88;44.91;97005.69;10325656;28;20112;-50
2023/10/19 21:28:02;;;;;;;8.65;3.60;;;;;;;18.77;44.97;97003.53;10325117;28;20083;-49
2023/10/19 21:33:01;;;;;;;4.15;3.50;;;;;;;18.74;44.96;96990.56;10325493;28;20123;-51
2023/10/19 21:38:00;;;;;;;7.05;3.47;;;;;;;18.76;45.15;96990.47;10325619;28;20068;-48
2023/10/19 21:42:59;;;;;;;6.55;3.80;;;;;;;18.75;45.07;96988.78;10325083;28;20132;-53
2023/10/19 21:47:58;;;;;;;7.47;3.97;;;;;;;18.67;45.32;96985.63;10325022;28;20076;-50
2023/10/19 21:52:58;;;;;;;8.07;3.83;;;;;;;18.56;45.67;96988.72;10324779;28;20033;-50
2023/10/19 21:57:57;;;;;;;7.65;4.03;;;;;;;18.42;46.08;96962.22;10324501;28;20069;-51
2023/10/19 22:02:57;;;;;;;7.10;3.50;;;;;;;18.59;45.76;96968.41;10325160;28;20087;-51
2023/10/19 22:07:56;;;;;;;10.82;3.60;;;;;;;18.67;45.64;96964.59;10323983;28;20145;-52
2023/10/19 22:12:55;;;;;;;5.18;3.65;;;;;;;18.67;45.73;96965.44;10321876;28;20444;-52
2023/10/19 22:17:54;;;;;;;10.43;4.10;;;;;;;18.67;45.96;96964.59;10321056;28;20538;-51
2023/10/19 22:22:53;;;;;;;4.72;3.20;;;;;;;18.66;46.04;96958.47;10320004;28;20033;-50
2023/10/19 22:27:52;;;;;;;9.20;3.40;;;;;;;18.70;46.26;96975.00;10322515;28;20149;-51
2023/10/19 22:32:52;;;;;;;7.30;3.50;;;;;;;18.67;46.28;96972.47;10324781;28;20112;-50
2023/10/19 22:37:51;;;;;;;7.88;3.70;;;;;;;18.69;46.13;96968.00;10323397;28;20061;-52
2023/10/19 22:42:50;;;;;;;7.80;3.67;;;;;;;18.69;45.98;96974.16;10323230;28;20033;-52
2023/10/19 22:47:49;;;;;;;8.38;3.90;;;;;;;18.78;45.77;96980.72;10330747;28;20088;-51
2023/10/19 22:52:48;;;;;;;7.10;3.58;;;;;;;18.58;46.30;96971.97;10331879;28;20136;-51
2023/10/19 22:57:50;;;;;;;7.05;3.90;;;;;;;18.45;46.17;96936.66;10331741;28;20036;-51
2023/10/19 23:02:49;;;;;;;7.15;4.05;;;;;;;18.52;46.47;96956.47;10332082;28;20161;-50
2023/10/19 23:07:49;;;;;;;7.38;3.78;;;;;;;18.44;46.43;96950.72;10331176;28;20112;-50
2023/10/19 23:12:50;;;;;;;5.47;3.60;;;;;;;18.28;47.10;96941.84;10331511;28;20076;-49
2023/10/19 23:17:51;;;;;;;7.55;3.65;;;;;;;18.31;46.93;96936.44;10332193;28;21412;-52
2023/10/19 23:22:50;;;;;;;7.25;4.10;;;;;;;18.14;47.44;96932.78;10334537;28;20077;-52
2023/10/19 23:27:49;;;;;;;6.50;3.90;;;;;;;18.19;47.39;96940.47;10334334;28;20088;-50